sensor_id;sensor_type;location;lat;lon;timestamp;temperature;humidity
51476;DHT22;37554;50.362;7.568;2022-07-01T00:02:11;24.90;53.30
51476;DHT22;37554;50.362;7.568;2022-07-01T00:04:37;24.90;53.30
51476;DHT22;37554;50.362;7.568;2022-07-01T00:07:02;24.90;53.30
51476;DHT22;37554;50.362;7.568;2022-07-01T00:09:28;24.90;53.30
51476;DHT22;37554;50.362;7.568;2022-07-01T00:11:54;24.90;53.30
51476;DHT22;37554;50.362;7.568;2022-07-01T00:14:20;24.90;53.30
51476;DHT22;37554;50.362;7.568;2022-07-01T00:16:48;24.90;53.30
51476;DHT22;37554;50.362;7.568;2022-07-01T00:19:14;24.90;53.20
51476;DHT22;37554;50.362;7.568;2022-07-01T00:21:40;24.90;53.30
51476;DHT22;37554;50.362;7.568;2022-07-01T00:24:06;24.90;53.30
51476;DHT22;37554;50.362;7.568;2022-07-01T00:26:32;24.90;53.30
51476;DHT22;37554;50.362;7.568;2022-07-01T00:28:57;24.80;53.30
51476;DHT22;37554;50.362;7.568;2022-07-01T00:31:23;24.80;53.30
51476;DHT22;37554;50.362;7.568;2022-07-01T00:33:49;24.80;53.20
51476;DHT22;37554;50.362;7.568;2022-07-01T00:36:14;24.80;53.20
51476;DHT22;37554;50.362;7.568;2022-07-01T00:38:40;24.90;53.20
51476;DHT22;37554;50.362;7.568;2022-07-01T00:41:06;24.80;53.10
51476;DHT22;37554;50.362;7.568;2022-07-01T00:43:35;24.80;53.10
51476;DHT22;37554;50.362;7.568;2022-07-01T00:46:02;24.80;53.10
51476;DHT22;37554;50.362;7.568;2022-07-01T00:48:27;24.80;53.10
51476;DHT22;37554;50.362;7.568;2022-07-01T00:50:53;24.80;53.10
51476;DHT22;37554;50.362;7.568;2022-07-01T00:53:19;24.80;53.10
51476;DHT22;37554;50.362;7.568;2022-07-01T00:55:45;24.80;53.20
51476;DHT22;37554;50.362;7.568;2022-07-01T00:58:11;24.80;53.10
51476;DHT22;37554;50.362;7.568;2022-07-01T01:00:37;24.80;53.10
51476;DHT22;37554;50.362;7.568;2022-07-01T01:03:06;24.80;53.10
51476;DHT22;37554;50.362;7.568;2022-07-01T01:05:34;24.80;53.10
51476;DHT22;37554;50.362;7.568;2022-07-01T01:08:00;24.80;53.10
51476;DHT22;37554;50.362;7.568;2022-07-01T01:10:26;24.80;53.10
51476;DHT22;37554;50.362;7.568;2022-07-01T01:12:54;24.80;53.10
51476;DHT22;37554;50.362;7.568;2022-07-01T01:15:20;24.80;53.10
51476;DHT22;37554;50.362;7.568;2022-07-01T01:17:46;24.80;53.10
51476;DHT22;37554;50.362;7.568;2022-07-01T01:20:19;24.80;53.10
51476;DHT22;37554;50.362;7.568;2022-07-01T01:22:45;24.70;53.00
51476;DHT22;37554;50.362;7.568;2022-07-01T01:25:12;24.70;53.10
51476;DHT22;37554;50.362;7.568;2022-07-01T01:27:37;24.70;53.10
51476;DHT22;37554;50.362;7.568;2022-07-01T01:30:04;24.70;53.10
51476;DHT22;37554;50.362;7.568;2022-07-01T01:32:30;24.70;53.10
51476;DHT22;37554;50.362;7.568;2022-07-01T01:34:56;24.70;53.10
51476;DHT22;37554;50.362;7.568;2022-07-01T01:37:22;24.70;52.70
51476;DHT22;37554;50.362;7.568;2022-07-01T01:39:47;24.70;53.10
51476;DHT22;37554;50.362;7.568;2022-07-01T01:42:13;24.70;53.20
51476;DHT22;37554;50.362;7.568;2022-07-01T01:44:39;24.70;53.20
51476;DHT22;37554;50.362;7.568;2022-07-01T01:47:04;24.60;53.10
51476;DHT22;37554;50.362;7.568;2022-07-01T01:49:30;24.60;53.20
51476;DHT22;37554;50.362;7.568;2022-07-01T01:51:57;24.60;53.20
51476;DHT22;37554;50.362;7.568;2022-07-01T01:54:23;24.60;53.20
51476;DHT22;37554;50.362;7.568;2022-07-01T01:56:50;24.60;53.80
51476;DHT22;37554;50.362;7.568;2022-07-01T01:59:16;24.60;53.30
51476;DHT22;37554;50.362;7.568;2022-07-01T02:01:41;24.60;53.20
51476;DHT22;37554;50.362;7.568;2022-07-01T02:04:07;24.60;53.20
51476;DHT22;37554;50.362;7.568;2022-07-01T02:06:32;24.60;53.20
51476;DHT22;37554;50.362;7.568;2022-07-01T02:08:58;24.50;53.20
51476;DHT22;37554;50.362;7.568;2022-07-01T02:11:24;24.50;53.30
51476;DHT22;37554;50.362;7.568;2022-07-01T02:13:49;24.50;53.20
51476;DHT22;37554;50.362;7.568;2022-07-01T02:16:15;24.50;53.20
51476;DHT22;37554;50.362;7.568;2022-07-01T02:18:40;24.50;53.20
51476;DHT22;37554;50.362;7.568;2022-07-01T02:21:06;24.50;53.30
51476;DHT22;37554;50.362;7.568;2022-07-01T02:23:32;24.50;53.30
51476;DHT22;37554;50.362;7.568;2022-07-01T02:25:58;24.50;53.40
51476;DHT22;37554;50.362;7.568;2022-07-01T02:28:24;24.40;53.30
51476;DHT22;37554;50.362;7.568;2022-07-01T02:30:49;24.40;53.30
51476;DHT22;37554;50.362;7.568;2022-07-01T02:33:15;24.40;53.40
51476;DHT22;37554;50.362;7.568;2022-07-01T02:35:41;24.40;53.40
51476;DHT22;37554;50.362;7.568;2022-07-01T02:38:07;24.40;53.40
51476;DHT22;37554;50.362;7.568;2022-07-01T02:40:34;24.40;53.40
51476;DHT22;37554;50.362;7.568;2022-07-01T02:43:01;24.40;53.40
51476;DHT22;37554;50.362;7.568;2022-07-01T02:45:27;24.40;53.40
51476;DHT22;37554;50.362;7.568;2022-07-01T02:47:52;24.40;53.40
51476;DHT22;37554;50.362;7.568;2022-07-01T02:50:19;24.30;53.40
51476;DHT22;37554;50.362;7.568;2022-07-01T02:52:45;24.30;53.40
51476;DHT22;37554;50.362;7.568;2022-07-01T02:55:12;24.30;53.50
51476;DHT22;37554;50.362;7.568;2022-07-01T02:57:39;24.30;53.50
51476;DHT22;37554;50.362;7.568;2022-07-01T03:00:07;24.30;53.40
51476;DHT22;37554;50.362;7.568;2022-07-01T03:02:33;24.30;53.50
51476;DHT22;37554;50.362;7.568;2022-07-01T03:04:59;24.30;53.50
51476;DHT22;37554;50.362;7.568;2022-07-01T03:07:25;24.20;53.40
51476;DHT22;37554;50.362;7.568;2022-07-01T03:09:51;24.20;53.50
51476;DHT22;37554;50.362;7.568;2022-07-01T03:12:17;24.20;53.40
51476;DHT22;37554;50.362;7.568;2022-07-01T03:17:26;24.20;53.50
51476;DHT22;37554;50.362;7.568;2022-07-01T03:19:52;24.20;53.40
51476;DHT22;37554;50.362;7.568;2022-07-01T03:22:20;24.20;53.40
51476;DHT22;37554;50.362;7.568;2022-07-01T03:24:47;24.20;53.40
51476;DHT22;37554;50.362;7.568;2022-07-01T03:27:13;24.20;53.40
51476;DHT22;37554;50.362;7.568;2022-07-01T03:29:38;24.20;53.40
51476;DHT22;37554;50.362;7.568;2022-07-01T03:32:04;24.20;54.00
51476;DHT22;37554;50.362;7.568;2022-07-01T03:34:31;24.20;53.40
51476;DHT22;37554;50.362;7.568;2022-07-01T03:36:56;24.20;53.40
51476;DHT22;37554;50.362;7.568;2022-07-01T03:39:22;24.20;53.30
51476;DHT22;37554;50.362;7.568;2022-07-01T03:41:48;24.20;53.40
51476;DHT22;37554;50.362;7.568;2022-07-01T03:44:14;24.10;53.30
51476;DHT22;37554;50.362;7.568;2022-07-01T03:46:39;24.10;53.30
51476;DHT22;37554;50.362;7.568;2022-07-01T03:49:05;24.10;53.20
51476;DHT22;37554;50.362;7.568;2022-07-01T03:51:31;24.10;53.20
51476;DHT22;37554;50.362;7.568;2022-07-01T03:53:56;24.10;53.20
51476;DHT22;37554;50.362;7.568;2022-07-01T03:56:42;24.10;53.20
51476;DHT22;37554;50.362;7.568;2022-07-01T03:59:08;24.10;53.10
51476;DHT22;37554;50.362;7.568;2022-07-01T04:01:34;24.10;53.10
51476;DHT22;37554;50.362;7.568;2022-07-01T04:04:00;24.10;53.00
51476;DHT22;37554;50.362;7.568;2022-07-01T04:06:26;24.10;53.00
51476;DHT22;37554;50.362;7.568;2022-07-01T04:08:51;24.10;53.00
51476;DHT22;37554;50.362;7.568;2022-07-01T04:11:18;24.10;53.00
51476;DHT22;37554;50.362;7.568;2022-07-01T04:13:44;24.00;53.00
51476;DHT22;37554;50.362;7.568;2022-07-01T04:16:19;24.00;53.00
51476;DHT22;37554;50.362;7.568;2022-07-01T04:18:46;24.00;53.00
51476;DHT22;37554;50.362;7.568;2022-07-01T04:21:13;24.00;53.10
51476;DHT22;37554;50.362;7.568;2022-07-01T04:23:57;24.00;53.00
51476;DHT22;37554;50.362;7.568;2022-07-01T04:26:23;24.00;53.00
51476;DHT22;37554;50.362;7.568;2022-07-01T04:28:50;24.00;53.00
51476;DHT22;37554;50.362;7.568;2022-07-01T04:31:16;24.00;53.00
51476;DHT22;37554;50.362;7.568;2022-07-01T04:33:42;24.00;52.90
51476;DHT22;37554;50.362;7.568;2022-07-01T04:36:07;24.00;52.90
51476;DHT22;37554;50.362;7.568;2022-07-01T04:38:33;24.10;52.90
51476;DHT22;37554;50.362;7.568;2022-07-01T04:40:58;24.00;52.90
51476;DHT22;37554;50.362;7.568;2022-07-01T04:43:42;24.00;52.80
51476;DHT22;37554;50.362;7.568;2022-07-01T04:46:08;24.00;52.80
51476;DHT22;37554;50.362;7.568;2022-07-01T04:48:34;24.00;52.80
51476;DHT22;37554;50.362;7.568;2022-07-01T04:50:59;24.00;52.80
51476;DHT22;37554;50.362;7.568;2022-07-01T04:53:25;24.00;52.70
51476;DHT22;37554;50.362;7.568;2022-07-01T04:55:50;24.00;52.70
51476;DHT22;37554;50.362;7.568;2022-07-01T04:58:16;24.00;52.80
51476;DHT22;37554;50.362;7.568;2022-07-01T05:00:41;24.00;52.70
51476;DHT22;37554;50.362;7.568;2022-07-01T05:03:08;24.00;52.70
51476;DHT22;37554;50.362;7.568;2022-07-01T05:05:34;24.00;52.70
51476;DHT22;37554;50.362;7.568;2022-07-01T05:07:59;24.00;52.60
51476;DHT22;37554;50.362;7.568;2022-07-01T05:10:25;24.10;52.60
51476;DHT22;37554;50.362;7.568;2022-07-01T05:12:51;24.10;52.50
51476;DHT22;37554;50.362;7.568;2022-07-01T05:15:16;24.10;52.50
51476;DHT22;37554;50.362;7.568;2022-07-01T05:17:42;24.10;52.40
51476;DHT22;37554;50.362;7.568;2022-07-01T05:20:26;24.10;52.40
51476;DHT22;37554;50.362;7.568;2022-07-01T05:23:10;24.10;52.40
51476;DHT22;37554;50.362;7.568;2022-07-01T05:25:36;24.10;52.40
51476;DHT22;37554;50.362;7.568;2022-07-01T05:28:01;24.10;52.40
51476;DHT22;37554;50.362;7.568;2022-07-01T05:30:27;24.10;52.40
51476;DHT22;37554;50.362;7.568;2022-07-01T05:32:53;24.20;52.40
51476;DHT22;37554;50.362;7.568;2022-07-01T05:35:18;24.20;52.30
51476;DHT22;37554;50.362;7.568;2022-07-01T05:37:44;24.20;52.20
51476;DHT22;37554;50.362;7.568;2022-07-01T05:40:10;24.30;52.20
51476;DHT22;37554;50.362;7.568;2022-07-01T05:42:36;24.30;52.10
51476;DHT22;37554;50.362;7.568;2022-07-01T05:45:02;24.40;52.10
51476;DHT22;37554;50.362;7.568;2022-07-01T05:47:28;24.30;52.00
51476;DHT22;37554;50.362;7.568;2022-07-01T05:49:53;23.80;51.60
51476;DHT22;37554;50.362;7.568;2022-07-01T05:52:19;23.50;52.00
51476;DHT22;37554;50.362;7.568;2022-07-01T05:54:45;23.40;52.40
51476;DHT22;37554;50.362;7.568;2022-07-01T05:57:10;23.20;52.60
51476;DHT22;37554;50.362;7.568;2022-07-01T05:59:36;23.10;53.10
51476;DHT22;37554;50.362;7.568;2022-07-01T06:02:02;23.00;53.30
51476;DHT22;37554;50.362;7.568;2022-07-01T06:04:28;22.90;53.40
51476;DHT22;37554;50.362;7.568;2022-07-01T06:06:54;22.80;53.80
51476;DHT22;37554;50.362;7.568;2022-07-01T06:09:19;22.70;54.10
51476;DHT22;37554;50.362;7.568;2022-07-01T06:11:45;22.60;54.10
51476;DHT22;37554;50.362;7.568;2022-07-01T06:14:11;22.60;54.20
51476;DHT22;37554;50.362;7.568;2022-07-01T06:16:37;22.60;54.20
51476;DHT22;37554;50.362;7.568;2022-07-01T06:19:04;22.50;54.20
51476;DHT22;37554;50.362;7.568;2022-07-01T06:21:30;22.50;54.20
51476;DHT22;37554;50.362;7.568;2022-07-01T06:23:56;22.50;54.10
51476;DHT22;37554;50.362;7.568;2022-07-01T06:26:22;22.50;54.00
51476;DHT22;37554;50.362;7.568;2022-07-01T06:28:47;22.40;53.70
51476;DHT22;37554;50.362;7.568;2022-07-01T06:31:13;22.40;53.90
51476;DHT22;37554;50.362;7.568;2022-07-01T06:33:39;22.40;54.10
51476;DHT22;37554;50.362;7.568;2022-07-01T06:36:04;22.40;54.20
51476;DHT22;37554;50.362;7.568;2022-07-01T06:38:31;22.40;54.10
51476;DHT22;37554;50.362;7.568;2022-07-01T06:40:57;22.40;54.20
51476;DHT22;37554;50.362;7.568;2022-07-01T06:43:41;22.40;54.30
51476;DHT22;37554;50.362;7.568;2022-07-01T06:46:08;22.30;54.10
51476;DHT22;37554;50.362;7.568;2022-07-01T06:48:34;22.30;54.50
51476;DHT22;37554;50.362;7.568;2022-07-01T06:51:04;22.30;54.70
51476;DHT22;37554;50.362;7.568;2022-07-01T06:53:29;22.40;55.00
51476;DHT22;37554;50.362;7.568;2022-07-01T06:55:56;22.30;54.90
51476;DHT22;37554;50.362;7.568;2022-07-01T06:58:22;22.30;54.80
51476;DHT22;37554;50.362;7.568;2022-07-01T07:00:48;22.30;54.50
51476;DHT22;37554;50.362;7.568;2022-07-01T07:03:13;22.30;54.40
51476;DHT22;37554;50.362;7.568;2022-07-01T07:05:39;22.20;54.30
51476;DHT22;37554;50.362;7.568;2022-07-01T07:08:05;22.20;54.40
51476;DHT22;37554;50.362;7.568;2022-07-01T07:10:30;22.10;54.40
51476;DHT22;37554;50.362;7.568;2022-07-01T07:12:56;22.10;54.40
51476;DHT22;37554;50.362;7.568;2022-07-01T07:15:22;22.00;54.40
51476;DHT22;37554;50.362;7.568;2022-07-01T07:17:47;22.00;54.60
51476;DHT22;37554;50.362;7.568;2022-07-01T07:20:13;22.10;54.50
51476;DHT22;37554;50.362;7.568;2022-07-01T07:22:38;22.10;54.40
51476;DHT22;37554;50.362;7.568;2022-07-01T07:25:04;22.00;54.70
51476;DHT22;37554;50.362;7.568;2022-07-01T07:27:30;22.00;54.70
51476;DHT22;37554;50.362;7.568;2022-07-01T07:29:56;21.90;55.10
51476;DHT22;37554;50.362;7.568;2022-07-01T07:32:21;22.00;55.10
51476;DHT22;37554;50.362;7.568;2022-07-01T07:34:47;22.00;55.10
51476;DHT22;37554;50.362;7.568;2022-07-01T07:37:13;22.00;55.00
51476;DHT22;37554;50.362;7.568;2022-07-01T07:39:38;22.10;54.90
51476;DHT22;37554;50.362;7.568;2022-07-01T07:42:04;22.20;54.70
51476;DHT22;37554;50.362;7.568;2022-07-01T07:44:31;22.20;54.50
51476;DHT22;37554;50.362;7.568;2022-07-01T07:46:57;22.40;54.30
51476;DHT22;37554;50.362;7.568;2022-07-01T07:49:23;22.40;54.30
51476;DHT22;37554;50.362;7.568;2022-07-01T07:51:50;22.50;54.10
51476;DHT22;37554;50.362;7.568;2022-07-01T07:54:15;22.60;53.70
51476;DHT22;37554;50.362;7.568;2022-07-01T07:56:41;22.60;54.10
51476;DHT22;37554;50.362;7.568;2022-07-01T07:59:07;22.60;53.70
51476;DHT22;37554;50.362;7.568;2022-07-01T08:01:33;22.60;53.90
51476;DHT22;37554;50.362;7.568;2022-07-01T08:03:58;22.60;53.70
51476;DHT22;37554;50.362;7.568;2022-07-01T08:06:24;22.70;53.70
51476;DHT22;37554;50.362;7.568;2022-07-01T08:08:50;22.70;53.70
51476;DHT22;37554;50.362;7.568;2022-07-01T08:11:16;22.70;53.70
51476;DHT22;37554;50.362;7.568;2022-07-01T08:13:42;22.80;54.60
51476;DHT22;37554;50.362;7.568;2022-07-01T08:16:09;22.80;53.80
51476;DHT22;37554;50.362;7.568;2022-07-01T08:18:34;22.90;53.70
51476;DHT22;37554;50.362;7.568;2022-07-01T08:21:00;22.80;53.40
51476;DHT22;37554;50.362;7.568;2022-07-01T08:23:26;22.80;53.50
51476;DHT22;37554;50.362;7.568;2022-07-01T08:25:52;22.80;53.40
51476;DHT22;37554;50.362;7.568;2022-07-01T08:28:18;22.70;53.60
51476;DHT22;37554;50.362;7.568;2022-07-01T08:30:44;22.80;53.60
51476;DHT22;37554;50.362;7.568;2022-07-01T08:33:10;22.80;53.50
51476;DHT22;37554;50.362;7.568;2022-07-01T08:35:36;22.90;53.50
51476;DHT22;37554;50.362;7.568;2022-07-01T08:38:03;22.90;53.30
51476;DHT22;37554;50.362;7.568;2022-07-01T08:40:30;23.00;53.10
51476;DHT22;37554;50.362;7.568;2022-07-01T08:42:57;23.20;53.00
51476;DHT22;37554;50.362;7.568;2022-07-01T08:45:26;23.30;52.80
51476;DHT22;37554;50.362;7.568;2022-07-01T08:47:54;23.40;52.60
51476;DHT22;37554;50.362;7.568;2022-07-01T08:50:24;23.50;52.60
51476;DHT22;37554;50.362;7.568;2022-07-01T08:52:50;23.50;53.00
51476;DHT22;37554;50.362;7.568;2022-07-01T08:55:16;23.60;52.10
51476;DHT22;37554;50.362;7.568;2022-07-01T08:57:41;23.70;51.90
51476;DHT22;37554;50.362;7.568;2022-07-01T09:00:08;23.70;51.70
51476;DHT22;37554;50.362;7.568;2022-07-01T09:02:57;23.80;51.70
51476;DHT22;37554;50.362;7.568;2022-07-01T09:05:24;23.80;51.40
51476;DHT22;37554;50.362;7.568;2022-07-01T09:08:05;24.00;51.40
51476;DHT22;37554;50.362;7.568;2022-07-01T09:10:32;24.10;51.00
51476;DHT22;37554;50.362;7.568;2022-07-01T09:13:07;24.00;51.10
51476;DHT22;37554;50.362;7.568;2022-07-01T09:15:34;24.10;51.00
51476;DHT22;37554;50.362;7.568;2022-07-01T09:18:16;24.10;50.90
51476;DHT22;37554;50.362;7.568;2022-07-01T09:20:45;24.20;50.70
51476;DHT22;37554;50.362;7.568;2022-07-01T09:23:13;24.20;50.70
51476;DHT22;37554;50.362;7.568;2022-07-01T09:25:44;24.30;50.70
51476;DHT22;37554;50.362;7.568;2022-07-01T09:28:13;24.40;50.50
51476;DHT22;37554;50.362;7.568;2022-07-01T09:30:41;24.50;50.30
51476;DHT22;37554;50.362;7.568;2022-07-01T09:33:21;24.50;50.00
51476;DHT22;37554;50.362;7.568;2022-07-01T09:35:47;24.60;49.70
51476;DHT22;37554;50.362;7.568;2022-07-01T09:38:22;24.80;49.50
51476;DHT22;37554;50.362;7.568;2022-07-01T09:41:01;25.00;49.40
51476;DHT22;37554;50.362;7.568;2022-07-01T09:43:33;25.00;49.10
51476;DHT22;37554;50.362;7.568;2022-07-01T09:46:05;25.00;49.10
51476;DHT22;37554;50.362;7.568;2022-07-01T09:51:05;25.30;48.70
51476;DHT22;37554;50.362;7.568;2022-07-01T09:53:31;25.50;48.30
51476;DHT22;37554;50.362;7.568;2022-07-01T09:55:57;25.80;48.10
51476;DHT22;37554;50.362;7.568;2022-07-01T09:58:23;26.10;47.80
51476;DHT22;37554;50.362;7.568;2022-07-01T10:00:49;26.50;47.50
51476;DHT22;37554;50.362;7.568;2022-07-01T10:03:18;26.70;47.00
51476;DHT22;37554;50.362;7.568;2022-07-01T10:05:49;26.80;46.50
51476;DHT22;37554;50.362;7.568;2022-07-01T10:14:06;27.60;45.50
51476;DHT22;37554;50.362;7.568;2022-07-01T10:16:34;27.70;45.20
51476;DHT22;37554;50.362;7.568;2022-07-01T10:21:46;27.80;44.10
51476;DHT22;37554;50.362;7.568;2022-07-01T10:24:16;27.80;44.40
51476;DHT22;37554;50.362;7.568;2022-07-01T10:26:43;27.60;44.30
51476;DHT22;37554;50.362;7.568;2022-07-01T10:34:46;26.90;43.10
51476;DHT22;37554;50.362;7.568;2022-07-01T10:37:12;26.60;44.10
51476;DHT22;37554;50.362;7.568;2022-07-01T10:45:05;26.40;44.60
51476;DHT22;37554;50.362;7.568;2022-07-01T10:47:31;26.10;45.00
51476;DHT22;37554;50.362;7.568;2022-07-01T10:50:13;25.90;45.40
51476;DHT22;37554;50.362;7.568;2022-07-01T10:52:58;25.60;45.60
51476;DHT22;37554;50.362;7.568;2022-07-01T10:55:39;25.40;45.80
51476;DHT22;37554;50.362;7.568;2022-07-01T10:58:06;25.20;45.80
51476;DHT22;37554;50.362;7.568;2022-07-01T11:00:34;25.10;46.60
51476;DHT22;37554;50.362;7.568;2022-07-01T11:03:15;25.10;46.70
51476;DHT22;37554;50.362;7.568;2022-07-01T11:05:42;25.10;47.00
51476;DHT22;37554;50.362;7.568;2022-07-01T11:08:09;25.20;47.00
51476;DHT22;37554;50.362;7.568;2022-07-01T11:10:35;25.10;46.90
51476;DHT22;37554;50.362;7.568;2022-07-01T11:13:02;25.10;46.80
51476;DHT22;37554;50.362;7.568;2022-07-01T11:15:29;25.10;47.10
51476;DHT22;37554;50.362;7.568;2022-07-01T11:17:55;25.00;47.50
51476;DHT22;37554;50.362;7.568;2022-07-01T11:20:26;24.80;47.30
51476;DHT22;37554;50.362;7.568;2022-07-01T11:22:52;24.70;47.50
51476;DHT22;37554;50.362;7.568;2022-07-01T11:25:20;24.70;48.10
51476;DHT22;37554;50.362;7.568;2022-07-01T11:27:48;24.50;48.10
51476;DHT22;37554;50.362;7.568;2022-07-01T11:30:14;24.50;47.70
51476;DHT22;37554;50.362;7.568;2022-07-01T11:32:42;24.40;47.40
51476;DHT22;37554;50.362;7.568;2022-07-01T11:35:12;24.30;47.90
51476;DHT22;37554;50.362;7.568;2022-07-01T11:38:09;24.20;48.10
51476;DHT22;37554;50.362;7.568;2022-07-01T11:40:54;24.20;47.80
51476;DHT22;37554;50.362;7.568;2022-07-01T11:43:23;24.20;48.20
51476;DHT22;37554;50.362;7.568;2022-07-01T11:45:50;24.10;48.00
51476;DHT22;37554;50.362;7.568;2022-07-01T11:50:54;24.20;48.20
51476;DHT22;37554;50.362;7.568;2022-07-01T11:53:20;24.20;48.40
51476;DHT22;37554;50.362;7.568;2022-07-01T11:55:46;24.30;48.30
51476;DHT22;37554;50.362;7.568;2022-07-01T11:58:13;24.30;48.10
51476;DHT22;37554;50.362;7.568;2022-07-01T12:00:39;24.20;48.00
51476;DHT22;37554;50.362;7.568;2022-07-01T12:03:04;24.10;47.70
51476;DHT22;37554;50.362;7.568;2022-07-01T12:05:32;24.10;47.60
51476;DHT22;37554;50.362;7.568;2022-07-01T12:07:59;24.00;47.90
51476;DHT22;37554;50.362;7.568;2022-07-01T12:10:26;24.00;48.40
51476;DHT22;37554;50.362;7.568;2022-07-01T12:12:52;24.00;47.90
51476;DHT22;37554;50.362;7.568;2022-07-01T12:15:20;23.90;47.20
51476;DHT22;37554;50.362;7.568;2022-07-01T12:17:46;23.90;47.50
51476;DHT22;37554;50.362;7.568;2022-07-01T12:20:12;23.90;47.80
51476;DHT22;37554;50.362;7.568;2022-07-01T12:22:38;24.00;47.80
51476;DHT22;37554;50.362;7.568;2022-07-01T12:25:11;24.20;47.80
51476;DHT22;37554;50.362;7.568;2022-07-01T12:27:39;24.40;47.50
51476;DHT22;37554;50.362;7.568;2022-07-01T12:30:08;24.50;47.10
51476;DHT22;37554;50.362;7.568;2022-07-01T12:32:38;24.70;47.10
51476;DHT22;37554;50.362;7.568;2022-07-01T12:35:08;25.00;47.50
51476;DHT22;37554;50.362;7.568;2022-07-01T12:37:53;25.20;46.80
51476;DHT22;37554;50.362;7.568;2022-07-01T12:40:24;25.70;46.40
51476;DHT22;37554;50.362;7.568;2022-07-01T12:42:53;25.60;45.90
51476;DHT22;37554;50.362;7.568;2022-07-01T12:45:23;25.40;46.60
51476;DHT22;37554;50.362;7.568;2022-07-01T12:47:53;25.10;46.10
51476;DHT22;37554;50.362;7.568;2022-07-01T12:50:31;25.00;46.30
51476;DHT22;37554;50.362;7.568;2022-07-01T12:53:10;24.80;45.70
51476;DHT22;37554;50.362;7.568;2022-07-01T12:55:36;24.70;46.00
51476;DHT22;37554;50.362;7.568;2022-07-01T12:58:09;24.70;46.10
51476;DHT22;37554;50.362;7.568;2022-07-01T13:00:35;24.60;46.30
51476;DHT22;37554;50.362;7.568;2022-07-01T13:03:02;24.60;46.20
51476;DHT22;37554;50.362;7.568;2022-07-01T13:05:30;24.60;45.90
51476;DHT22;37554;50.362;7.568;2022-07-01T13:07:56;24.60;46.70
51476;DHT22;37554;50.362;7.568;2022-07-01T13:10:22;24.70;46.30
51476;DHT22;37554;50.362;7.568;2022-07-01T13:12:48;24.90;46.20
51476;DHT22;37554;50.362;7.568;2022-07-01T13:15:15;25.10;46.00
51476;DHT22;37554;50.362;7.568;2022-07-01T13:17:42;25.40;45.90
51476;DHT22;37554;50.362;7.568;2022-07-01T13:20:08;25.50;45.20
51476;DHT22;37554;50.362;7.568;2022-07-01T13:22:34;25.40;45.50
51476;DHT22;37554;50.362;7.568;2022-07-01T13:25:01;25.20;45.50
51476;DHT22;37554;50.362;7.568;2022-07-01T13:27:27;25.20;45.80
51476;DHT22;37554;50.362;7.568;2022-07-01T13:29:52;25.20;46.70
51476;DHT22;37554;50.362;7.568;2022-07-01T13:32:18;25.30;45.70
51476;DHT22;37554;50.362;7.568;2022-07-01T13:34:45;25.80;44.80
51476;DHT22;37554;50.362;7.568;2022-07-01T13:37:11;25.80;44.90
51476;DHT22;37554;50.362;7.568;2022-07-01T13:39:37;25.70;45.10
51476;DHT22;37554;50.362;7.568;2022-07-01T13:42:02;25.50;45.30
51476;DHT22;37554;50.362;7.568;2022-07-01T13:44:28;25.30;45.30
51476;DHT22;37554;50.362;7.568;2022-07-01T13:46:54;25.30;45.50
51476;DHT22;37554;50.362;7.568;2022-07-01T13:49:20;25.30;45.70
51476;DHT22;37554;50.362;7.568;2022-07-01T13:51:45;25.30;45.50
51476;DHT22;37554;50.362;7.568;2022-07-01T13:54:11;25.40;45.40
51476;DHT22;37554;50.362;7.568;2022-07-01T13:56:37;26.10;45.20
51476;DHT22;37554;50.362;7.568;2022-07-01T13:59:03;27.30;44.00
51476;DHT22;37554;50.362;7.568;2022-07-01T14:01:30;28.30;42.60
51476;DHT22;37554;50.362;7.568;2022-07-01T14:03:57;29.00;41.50
51476;DHT22;37554;50.362;7.568;2022-07-01T14:06:22;28.80;41.20
51476;DHT22;37554;50.362;7.568;2022-07-01T14:08:48;28.30;41.30
51476;DHT22;37554;50.362;7.568;2022-07-01T14:11:14;27.90;41.50
51476;DHT22;37554;50.362;7.568;2022-07-01T14:13:40;27.40;42.20
51476;DHT22;37554;50.362;7.568;2022-07-01T14:16:07;27.20;42.50
51476;DHT22;37554;50.362;7.568;2022-07-01T14:18:33;27.10;42.40
51476;DHT22;37554;50.362;7.568;2022-07-01T14:21:00;27.20;42.20
51476;DHT22;37554;50.362;7.568;2022-07-01T14:23:26;27.20;42.20
51476;DHT22;37554;50.362;7.568;2022-07-01T14:25:52;27.30;42.30
51476;DHT22;37554;50.362;7.568;2022-07-01T14:28:18;27.40;42.30
51476;DHT22;37554;50.362;7.568;2022-07-01T14:30:44;27.40;41.50
51476;DHT22;37554;50.362;7.568;2022-07-01T14:33:10;27.40;40.80
51476;DHT22;37554;50.362;7.568;2022-07-01T14:35:36;27.40;40.80
51476;DHT22;37554;50.362;7.568;2022-07-01T14:38:03;27.50;41.20
51476;DHT22;37554;50.362;7.568;2022-07-01T14:40:30;27.50;40.90
51476;DHT22;37554;50.362;7.568;2022-07-01T14:42:56;27.50;40.80
51476;DHT22;37554;50.362;7.568;2022-07-01T14:45:22;27.30;40.40
51476;DHT22;37554;50.362;7.568;2022-07-01T14:47:48;27.00;40.50
51476;DHT22;37554;50.362;7.568;2022-07-01T14:50:14;26.70;40.70
51476;DHT22;37554;50.362;7.568;2022-07-01T14:52:41;26.50;40.70
51476;DHT22;37554;50.362;7.568;2022-07-01T14:55:07;26.30;40.90
51476;DHT22;37554;50.362;7.568;2022-07-01T14:57:35;26.20;41.00
51476;DHT22;37554;50.362;7.568;2022-07-01T15:00:01;26.00;41.00
51476;DHT22;37554;50.362;7.568;2022-07-01T15:02:28;25.90;41.60
51476;DHT22;37554;50.362;7.568;2022-07-01T15:04:54;25.80;41.90
51476;DHT22;37554;50.362;7.568;2022-07-01T15:07:20;25.70;42.50
51476;DHT22;37554;50.362;7.568;2022-07-01T15:09:46;25.70;42.90
51476;DHT22;37554;50.362;7.568;2022-07-01T15:12:12;25.60;43.10
51476;DHT22;37554;50.362;7.568;2022-07-01T15:14:38;25.50;43.30
51476;DHT22;37554;50.362;7.568;2022-07-01T15:17:04;25.60;43.40
51476;DHT22;37554;50.362;7.568;2022-07-01T15:19:29;25.50;43.30
51476;DHT22;37554;50.362;7.568;2022-07-01T15:21:56;25.50;43.30
51476;DHT22;37554;50.362;7.568;2022-07-01T15:24:22;25.40;43.20
51476;DHT22;37554;50.362;7.568;2022-07-01T15:26:49;25.40;43.20
51476;DHT22;37554;50.362;7.568;2022-07-01T15:29:15;25.40;43.00
51476;DHT22;37554;50.362;7.568;2022-07-01T15:31:41;25.40;43.40
51476;DHT22;37554;50.362;7.568;2022-07-01T15:34:07;25.40;43.50
51476;DHT22;37554;50.362;7.568;2022-07-01T15:36:33;25.50;43.60
51476;DHT22;37554;50.362;7.568;2022-07-01T15:38:59;25.60;43.50
51476;DHT22;37554;50.362;7.568;2022-07-01T15:41:28;25.70;43.40
51476;DHT22;37554;50.362;7.568;2022-07-01T15:43:54;25.70;43.60
51476;DHT22;37554;50.362;7.568;2022-07-01T15:46:20;25.70;43.50
51476;DHT22;37554;50.362;7.568;2022-07-01T15:48:46;25.60;43.50
51476;DHT22;37554;50.362;7.568;2022-07-01T15:51:12;25.60;43.60
51476;DHT22;37554;50.362;7.568;2022-07-01T15:53:37;25.60;44.00
51476;DHT22;37554;50.362;7.568;2022-07-01T15:56:03;25.50;44.20
51476;DHT22;37554;50.362;7.568;2022-07-01T15:58:29;25.50;44.10